createdAt,value
2023-05-19T00:00:46.164Z,99757.25
2023-05-19T00:04:08.069Z,99753.64
2023-05-19T00:07:27.639Z,99751.81
2023-05-19T00:10:45.786Z,99751.42
2023-05-19T00:14:04.929Z,99745.98
2023-05-19T00:17:23.885Z,99753.09
2023-05-19T00:20:40.897Z,99740.69
2023-05-19T00:24:00.154Z,99747.11
2023-05-19T00:27:16.848Z,99740.69
2023-05-19T00:30:33.557Z,99734.73
2023-05-19T00:33:50.145Z,99729.28
2023-05-19T00:37:11.831Z,99722.04
2023-05-19T00:40:29.189Z,99728.16
2023-05-19T00:43:48.457Z,99730.11
2023-05-19T00:47:06.096Z,99730.26
2023-05-19T00:50:22.719Z,99736.68
2023-05-19T00:53:41.364Z,99734.85
2023-05-19T00:56:59.263Z,99732.20
2023-05-19T01:00:19.738Z,99721.63
2023-05-19T01:03:38.510Z,99731.93
2023-05-19T01:06:58.739Z,99727.77
2023-05-19T01:10:16.584Z,99732.67
2023-05-19T01:13:35.666Z,99744.77
2023-05-19T01:16:57.756Z,99740.61
2023-05-19T01:20:23.008Z,99742.25
2023-05-19T01:23:46.022Z,99743.92
2023-05-19T01:28:03.351Z,99731.82
2023-05-19T01:31:21.050Z,99723.88
2023-05-19T01:34:40.549Z,99725.55
2023-05-19T01:38:00.891Z,99719.13
2023-05-19T01:41:20.056Z,99720.81
2023-05-19T01:44:37.869Z,99714.39
2023-05-19T01:47:57.879Z,99718.39
2023-05-19T01:51:15.647Z,99711.30
2023-05-19T01:54:32.965Z,99711.30
2023-05-19T01:57:56.693Z,99719.91
2023-05-19T02:01:20.793Z,99717.26
2023-05-19T02:04:44.835Z,99713.80
2023-05-19T02:08:10.036Z,99709.48
2023-05-19T02:11:32.180Z,99713.25
2023-05-19T02:14:54.645Z,99708.40
2023-05-19T02:18:12.646Z,99701.31
2023-05-19T02:21:29.270Z,99697.44
2023-05-19T02:24:46.030Z,99699.80
2023-05-19T02:28:03.354Z,99695.33
2023-05-19T02:31:20.645Z,99693.38
2023-05-19T02:34:38.612Z,99697.54
2023-05-19T02:37:55.914Z,99690.58
2023-05-19T02:41:12.620Z,99695.71
2023-05-19T02:44:32.654Z,99694.89
2023-05-19T02:47:48.996Z,99693.77
2023-05-19T02:51:05.736Z,99693.91
2023-05-19T02:54:22.527Z,99709.48
2023-05-19T02:57:44.310Z,99698.52
2023-05-19T03:01:01.803Z,99697.69
2023-05-19T03:04:22.112Z,99704.11
2023-05-19T03:07:40.168Z,99703.80
2023-05-19T03:10:58.810Z,99690.58
2023-05-19T03:14:15.993Z,99699.20
2023-05-19T03:17:34.917Z,99708.13
2023-05-19T03:20:52.472Z,99702.77
2023-05-19T03:24:10.170Z,99706.50
2023-05-19T03:27:27.083Z,99704.55
2023-05-19T03:30:44.282Z,99701.31
2023-05-19T03:34:02.913Z,99697.22
2023-05-19T03:37:19.400Z,99696.69
2023-05-19T03:40:36.793Z,99696.84
2023-05-19T03:43:55.564Z,99692.94
2023-05-19T03:47:14.485Z,99699.33
2023-05-19T03:50:51.708Z,99694.51
2023-05-19T03:54:12.113Z,99704.50
2023-05-19T03:57:32.461Z,99702.34
2023-05-19T04:00:51.231Z,99714.70
2023-05-19T04:04:08.317Z,99707.42
2023-05-19T04:07:25.265Z,99705.63
2023-05-19T04:10:42.185Z,99716.48
2023-05-19T04:13:59.196Z,99716.48
2023-05-19T04:17:16.373Z,99711.44
2023-05-19T04:20:33.539Z,99712.92
2023-05-19T04:23:51.079Z,99713.45
2023-05-19T04:27:10.867Z,99714.39
2023-05-19T04:30:29.542Z,99717.73
2023-05-19T04:33:47.048Z,99712.97
2023-05-19T04:37:03.914Z,99704.03
2023-05-19T04:40:24.064Z,99709.20
2023-05-19T04:43:42.583Z,99709.04
2023-05-19T04:47:01.164Z,99712.06
2023-05-19T04:50:19.911Z,99704.28
2023-05-19T04:53:39.796Z,99711.25
2023-05-19T04:56:57.363Z,99700.51
2023-05-19T05:00:17.793Z,99707.59
2023-05-19T05:03:45.045Z,99708.13
2023-05-19T05:07:01.617Z,99704.36
2023-05-19T05:10:20.054Z,99706.41
2023-05-19T05:13:39.561Z,99702.34
2023-05-19T05:17:02.450Z,99709.52
2023-05-19T05:20:23.016Z,99710.97
2023-05-19T05:23:41.771Z,99713.99
2023-05-19T05:27:00.631Z,99711.88
2023-05-19T05:30:25.799Z,99713.52
2023-05-19T05:33:45.995Z,99709.89
2023-05-19T05:37:03.028Z,99713.39
2023-05-19T05:40:21.571Z,99724.74
2023-05-19T05:43:38.440Z,99726.91
2023-05-19T05:46:58.037Z,99720.48
2023-05-19T05:50:19.052Z,99725.13
2023-05-19T05:53:37.840Z,99727.77
2023-05-19T05:59:57.603Z,99729.56
2023-05-19T06:03:15.585Z,99736.97
2023-05-19T06:06:32.868Z,99727.61
2023-05-19T06:09:50.315Z,99735.39
2023-05-19T06:13:07.343Z,99748.09
2023-05-19T06:16:25.615Z,99739.71
2023-05-19T06:19:42.431Z,99748.63
2023-05-19T06:22:58.844Z,99750.59
2023-05-19T06:26:16.425Z,99747.12
2023-05-19T06:29:33.219Z,99748.03
2023-05-19T06:32:52.399Z,99746.73
2023-05-19T06:36:11.119Z,99754.02
2023-05-19T06:39:29.012Z,99754.23
2023-05-19T06:42:46.144Z,99753.47
2023-05-19T06:46:04.868Z,99754.86
2023-05-19T06:49:22.285Z,99760.81
2023-05-19T06:52:39.512Z,99760.53
2023-05-19T06:55:59.729Z,99754.63
2023-05-19T06:59:24.275Z,99756.42
2023-05-19T07:02:41.666Z,99757.56
2023-05-19T07:05:58.804Z,99750.39
2023-05-19T07:09:16.047Z,99749.91
2023-05-19T07:12:35.265Z,99747.25
2023-05-19T07:15:56.325Z,99744.15
2023-05-19T07:19:14.455Z,99745.20
2023-05-19T07:22:36.058Z,99748.06
2023-05-19T07:25:52.969Z,99744.27
2023-05-19T07:29:09.844Z,99736.55
2023-05-19T07:32:26.492Z,99748.49
2023-05-19T07:35:43.677Z,99749.54
2023-05-19T07:39:01.579Z,99751.41
2023-05-19T07:42:18.731Z,99751.86
2023-05-19T07:45:36.492Z,99749.56
2023-05-19T07:48:52.978Z,99743.67
2023-05-19T07:52:11.500Z,99749.83
2023-05-19T07:55:28.863Z,99752.83
2023-05-19T07:59:08.851Z,99758.83
2023-05-19T08:02:26.553Z,99750.07
2023-05-19T08:05:46.483Z,99745.28
2023-05-19T08:09:02.946Z,99749.91
2023-05-19T08:12:20.590Z,99750.73
2023-05-19T08:15:37.905Z,99745.94
2023-05-19T08:19:16.334Z,99751.11
2023-05-19T08:22:50.929Z,99740.80
2023-05-19T08:26:10.474Z,99748.30
2023-05-19T08:29:32.758Z,99747.96
2023-05-19T08:32:50.126Z,99746.81
2023-05-19T08:36:08.483Z,99750.66
2023-05-19T08:39:26.710Z,99746.04
2023-05-19T08:42:58.920Z,99757.82
2023-05-19T08:46:17.964Z,99750.38
2023-05-19T08:49:47.406Z,99751.57
2023-05-19T08:53:18.124Z,99755.21
2023-05-19T08:56:30.221Z,99760.53
2023-05-19T08:59:51.256Z,99757.88
2023-05-19T09:03:18.279Z,99760.06
2023-05-19T09:06:24.939Z,99756.42
2023-05-19T09:09:42.960Z,99759.75
2023-05-19T09:13:01.528Z,99767.72
2023-05-19T09:16:30.457Z,99765.71
2023-05-19T09:19:52.771Z,99768.88
2023-05-19T09:23:09.926Z,99764.42
2023-05-19T09:26:27.590Z,99766.22
2023-05-19T09:29:44.296Z,99771.37
2023-05-19T09:33:01.981Z,99771.06
2023-05-19T09:36:20.396Z,99771.02
2023-05-19T09:39:37.626Z,99769.39
2023-05-19T09:42:54.985Z,99778.04
2023-05-19T09:46:14.957Z,99771.09
2023-05-19T09:49:35.106Z,99760.95
2023-05-19T09:52:53.973Z,99760.95
2023-05-19T09:56:12.903Z,99769.09
2023-05-19T09:59:33.345Z,99768.61
2023-05-19T10:02:55.858Z,99771.27
2023-05-19T10:06:16.628Z,99769.59
2023-05-19T10:09:35.654Z,99776.75
2023-05-19T10:12:54.750Z,99770.92
2023-05-19T10:16:12.115Z,99763.77
2023-05-19T10:19:33.414Z,99768.78
2023-05-19T10:22:51.217Z,99756.02
2023-05-19T10:26:09.894Z,99754.84
2023-05-19T10:29:31.693Z,99764.14
2023-05-19T10:32:51.753Z,99751.88
2023-05-19T10:36:22.264Z,99762.50
2023-05-19T10:39:42.131Z,99751.88
2023-05-19T10:43:08.258Z,99762.50
2023-05-19T10:46:25.168Z,99758.34
2023-05-19T10:49:44.581Z,99761.84
2023-05-19T10:53:05.898Z,99763.66
2023-05-19T10:56:37.410Z,99759.67
2023-05-19T10:59:54.510Z,99764.66
2023-05-19T11:03:27.456Z,99762.98
2023-05-19T11:06:46.858Z,99760.49
2023-05-19T11:10:04.779Z,99761.00
2023-05-19T11:13:34.330Z,99769.31
2023-05-19T11:16:54.391Z,99755.18
2023-05-19T11:20:13.513Z,99753.70
2023-05-19T11:23:35.410Z,99763.34
2023-05-19T11:26:55.270Z,99760.69
2023-05-19T11:30:18.763Z,99763.52
2023-05-19T11:33:36.080Z,99760.52
2023-05-19T11:36:53.716Z,99768.14
2023-05-19T11:40:13.507Z,99767.98
2023-05-19T11:43:34.060Z,99764.84
2023-05-19T11:46:51.615Z,99761.70
2023-05-19T11:50:09.668Z,99766.50
2023-05-19T11:53:26.561Z,99770.31
2023-05-19T11:56:49.775Z,99777.95
2023-05-19T12:00:13.488Z,99777.28
2023-05-19T12:03:33.589Z,99770.66
2023-05-19T12:06:50.319Z,99773.14
2023-05-19T12:10:07.787Z,99780.13
2023-05-19T12:13:24.868Z,99776.31
2023-05-19T12:16:44.939Z,99770.14
2023-05-19T12:20:14.890Z,99774.66
2023-05-19T12:23:31.791Z,99783.45
2023-05-19T12:26:54.548Z,99765.52
2023-05-19T12:30:15.167Z,99771.81
2023-05-19T12:33:33.434Z,99770.16
2023-05-19T12:36:52.314Z,99765.19
2023-05-19T12:40:12.358Z,99752.72
2023-05-19T12:43:34.606Z,99752.90
2023-05-19T12:46:57.856Z,99761.69
2023-05-19T12:50:18.138Z,99763.20
2023-05-19T12:53:36.487Z,99760.55
2023-05-19T12:57:03.227Z,99752.22
2023-05-19T13:00:29.674Z,99758.05
2023-05-19T13:04:01.645Z,99762.02
2023-05-19T13:07:22.296Z,99757.69
2023-05-19T13:10:43.590Z,99753.91
2023-05-19T13:13:59.990Z,99750.39
2023-05-19T13:17:17.019Z,99744.91
2023-05-19T13:20:34.405Z,99745.41
2023-05-19T13:23:51.129Z,99745.91
2023-05-19T13:27:11.008Z,99740.09
2023-05-19T13:30:28.806Z,99740.42
2023-05-19T13:33:45.533Z,99742.58
2023-05-19T13:37:01.794Z,99744.42
2023-05-19T13:40:21.976Z,99747.90
2023-05-19T13:43:40.076Z,99740.92
2023-05-19T13:46:59.451Z,99741.23
2023-05-19T13:50:17.764Z,99742.63
2023-05-19T13:53:35.617Z,99740.14
2023-05-19T13:56:52.218Z,99742.95
2023-05-19T14:00:14.736Z,99747.91
2023-05-19T14:03:36.280Z,99740.28
2023-05-19T14:06:53.128Z,99749.22
2023-05-19T14:10:10.806Z,99746.91
2023-05-19T14:13:33.005Z,99751.23
2023-05-19T14:16:46.367Z,99747.90
2023-05-19T14:20:03.624Z,99748.75
2023-05-19T14:23:22.478Z,99749.91
2023-05-19T14:26:42.687Z,99755.38
2023-05-19T14:29:59.672Z,99749.73
2023-05-19T14:33:16.376Z,99750.22
2023-05-19T14:36:34.171Z,99746.90
2023-05-19T14:39:52.863Z,99749.91
2023-05-19T14:43:20.740Z,99757.89
2023-05-19T14:46:37.943Z,99750.24
2023-05-19T14:49:59.813Z,99750.77
2023-05-19T14:53:23.438Z,99747.94
2023-05-19T14:56:42.925Z,99752.58
2023-05-19T15:00:05.360Z,99755.91
2023-05-19T15:03:33.965Z,99759.39
2023-05-19T15:07:05.998Z,99752.77
2023-05-19T15:10:16.198Z,99753.08
2023-05-19T15:13:41.321Z,99760.23
2023-05-19T15:16:59.938Z,99761.55
2023-05-19T15:21:12.072Z,99760.88
2023-05-19T15:28:38.316Z,99745.24
2023-05-19T15:31:58.063Z,99761.02
2023-05-19T15:35:16.834Z,99763.34
2023-05-19T15:38:33.798Z,99756.36
2023-05-19T15:41:50.553Z,99760.36
2023-05-19T15:45:08.799Z,99758.05
2023-05-19T15:48:25.659Z,99770.98
2023-05-19T15:51:42.685Z,99763.18
2023-05-19T15:54:59.932Z,99763.70
2023-05-19T15:58:17.439Z,99765.00
2023-05-19T16:01:34.418Z,99760.03
2023-05-19T16:04:51.346Z,99758.02
2023-05-19T16:08:08.799Z,99766.67
2023-05-19T16:11:25.622Z,99768.67
2023-05-19T16:14:44.994Z,99769.02
2023-05-19T16:17:59.349Z,99763.20
2023-05-19T16:21:16.384Z,99765.85
2023-05-19T16:24:33.655Z,99765.85
2023-05-19T16:27:51.899Z,99755.53
2023-05-19T16:31:09.048Z,99745.58
2023-05-19T16:34:27.052Z,99746.59
2023-05-19T16:37:47.784Z,99751.41
2023-05-19T16:41:06.180Z,99752.05
2023-05-19T16:44:23.028Z,99762.02
2023-05-19T16:47:39.863Z,99755.03
2023-05-19T16:50:57.899Z,99751.73
2023-05-19T16:54:14.528Z,99755.72
2023-05-19T16:57:34.005Z,99748.90
2023-05-19T17:00:50.685Z,99745.57
2023-05-19T17:04:10.531Z,99745.42
2023-05-19T17:07:29.575Z,99751.39
2023-05-19T17:10:47.340Z,99747.75
2023-05-19T17:14:06.689Z,99750.22
2023-05-19T17:17:23.542Z,99760.84
2023-05-19T17:20:50.659Z,99770.31
2023-05-19T17:24:07.458Z,99768.82
2023-05-19T17:27:24.263Z,99777.47
2023-05-19T17:30:41.170Z,99764.67
2023-05-19T17:33:58.064Z,99777.95
2023-05-19T17:37:17.663Z,99778.30
2023-05-19T17:40:34.625Z,99776.28
2023-05-19T17:43:52.204Z,99774.30
2023-05-19T17:47:08.890Z,99784.94
2023-05-19T17:50:31.866Z,99782.11
2023-05-19T17:53:54.559Z,99786.09
2023-05-19T17:57:16.348Z,99780.95
2023-05-19T18:00:36.287Z,99781.44
2023-05-19T18:03:54.810Z,99783.59
2023-05-19T18:10:32.628Z,99782.25
2023-05-19T18:13:51.413Z,99781.75
2023-05-19T18:17:11.104Z,99790.37
2023-05-19T18:20:35.036Z,99798.20
2023-05-19T18:23:58.367Z,99797.17
2023-05-19T18:27:16.463Z,99795.88
2023-05-19T18:30:36.208Z,99792.38
2023-05-19T18:33:53.587Z,99791.02
2023-05-19T18:37:16.476Z,99789.20
2023-05-19T18:40:37.770Z,99798.34
2023-05-19T18:43:56.494Z,99799.19
2023-05-19T18:47:15.960Z,99793.88
2023-05-19T18:50:33.307Z,99797.69
2023-05-19T18:53:51.573Z,99793.67
2023-05-19T18:57:11.616Z,99806.30
2023-05-19T19:00:31.963Z,99803.98
2023-05-19T19:03:50.180Z,99801.16
2023-05-19T19:07:13.280Z,99804.66
2023-05-19T19:10:32.954Z,99809.30
2023-05-19T19:13:53.214Z,99823.09
2023-05-19T19:17:10.621Z,99817.78
2023-05-19T19:20:27.859Z,99818.94
2023-05-19T19:23:46.393Z,99824.42
2023-05-19T19:27:04.484Z,99819.92
2023-05-19T19:30:23.288Z,99821.77
2023-05-19T19:33:42.413Z,99818.42
2023-05-19T19:37:01.068Z,99819.92
2023-05-19T19:40:21.855Z,99828.72
2023-05-19T19:43:39.595Z,99827.89
2023-05-19T19:46:56.684Z,99827.38
2023-05-19T19:50:16.667Z,99820.40
2023-05-19T19:53:33.870Z,99823.91
2023-05-19T19:56:52.658Z,99820.23
2023-05-19T20:00:10.466Z,99820.88
2023-05-19T20:03:27.459Z,99827.34
2023-05-19T20:06:44.421Z,99821.34
2023-05-19T20:10:01.621Z,99823.05
2023-05-19T20:13:18.367Z,99815.91
2023-05-19T20:16:35.429Z,99815.56
2023-05-19T20:19:52.356Z,99811.58
2023-05-19T20:23:09.308Z,99809.44
2023-05-19T20:26:26.529Z,99813.08
2023-05-19T20:29:43.500Z,99810.25
2023-05-19T20:33:00.685Z,99817.23
2023-05-19T20:36:17.788Z,99815.91
2023-05-19T20:39:36.056Z,99815.22
2023-05-19T20:42:53.161Z,99813.20
2023-05-19T20:46:15.208Z,99819.20
2023-05-19T20:50:05.972Z,99810.55
2023-05-19T20:53:20.398Z,99809.90
2023-05-19T20:56:42.041Z,99806.56
2023-05-19T21:00:05.693Z,99800.44
2023-05-19T21:03:25.792Z,99806.05
2023-05-19T21:06:42.564Z,99805.23
2023-05-19T21:09:59.382Z,99799.23
2023-05-19T21:13:16.004Z,99804.88
2023-05-19T21:16:32.945Z,99800.05
2023-05-19T21:19:50.893Z,99804.20
2023-05-19T21:23:07.712Z,99805.02
2023-05-19T21:26:24.404Z,99805.87
2023-05-19T21:29:42.023Z,99804.88
2023-05-19T21:32:59.156Z,99808.69
2023-05-19T21:36:18.148Z,99803.34
2023-05-19T21:39:35.345Z,99804.02
2023-05-19T21:42:52.008Z,99810.83
2023-05-19T21:46:09.287Z,99804.67
2023-05-19T21:49:26.035Z,99807.66
2023-05-19T21:52:42.290Z,99803.00
2023-05-19T21:55:58.941Z,99813.48
2023-05-19T21:59:17.707Z,99806.98
2023-05-19T22:02:34.487Z,99807.66
2023-05-19T22:05:55.568Z,99805.98
2023-05-19T22:09:12.384Z,99807.66
2023-05-19T22:12:29.146Z,99806.16
2023-05-19T22:15:46.602Z,99803.34
2023-05-19T22:19:04.997Z,99800.84
2023-05-19T22:22:22.183Z,99799.18
2023-05-19T22:25:39.079Z,99800.33
2023-05-19T22:28:56.898Z,99806.80
2023-05-19T22:32:15.088Z,99793.19
2023-05-19T22:35:32.633Z,99799.18
2023-05-19T22:38:49.403Z,99795.84
2023-05-19T22:42:06.277Z,99790.19
2023-05-19T22:45:23.595Z,99785.86
2023-05-19T22:48:40.346Z,99791.52
2023-05-19T22:51:57.156Z,99784.88
2023-05-19T22:55:15.911Z,99788.84
2023-05-19T22:58:32.592Z,99769.75
2023-05-19T23:01:49.441Z,99772.08
2023-05-19T23:05:06.857Z,99771.55
2023-05-19T23:08:24.065Z,99768.77
2023-05-19T23:11:41.253Z,99760.59
2023-05-19T23:14:58.612Z,99761.44
2023-05-19T23:18:15.970Z,99754.81
2023-05-19T23:21:33.476Z,99753.48
2023-05-19T23:24:50.132Z,99754.30
2023-05-19T23:28:08.563Z,99753.15
2023-05-19T23:31:25.317Z,99746.39
2023-05-19T23:34:42.001Z,99743.56
2023-05-19T23:37:58.791Z,99738.09
2023-05-19T23:41:15.723Z,99734.15
2023-05-19T23:44:32.350Z,99735.95
2023-05-19T23:47:49.013Z,99741.77
2023-05-19T23:51:06.356Z,99748.75
2023-05-19T23:54:22.948Z,99750.08
2023-05-19T23:57:39.921Z,99745.76
